• Join FlightAware (Why Join?)
  • Login
  • US Flag 
07:50AM EST


 

Airport Tracker/Info


-or-


 

Live Flight TrackerFlight Track Log ✈ SKW7363 ✈ 06-Jul-2013 ✈ KSLC - KCOD

Flight Track Log - Related Links

Times and Time Zones

All times are in EDT time to prevent confusion due to time zone crossing. See the SKW7363 flight status page for this flight to view local times or setup timezone preferences in your user account.

Time Position Orientation Groundspeed Altitude Reporting Facility
EDT Latitude Longitude Course Direction KTS MPH feet Rate Location/Type
05:41PM 40.7711 -111.9744 North 167 192 5,100  Level Salt Lake Center
05:42PM 40.7469 -112.0478 247° West 242 278 6,800 1,740 Climbing Salt Lake Center
05:43PM 40.7947 -112.1167 313° West 275 316 8,800 2,340 Climbing Salt Lake Center
05:44PM 40.9585 -112.2333 North  Level FlightAware Approximate
05:44PM 40.8283 -112.1517 322° Northwest 274 315 10,300  Level Salt Lake Center
05:45PM 41.0126 -112.1328 81° East  Level FlightAware Approximate
05:45PM 40.8975 -112.1925 336° Northwest 291 335 12,300  Level Salt Lake Center
05:46PM 41.0763 -112.0167 North  Level FlightAware Approximate
05:46PM 40.9667 -112.1242 37° Northeast 312 359 14,200  Level Salt Lake Center
05:47PM 41.0344 -112.0456 41° Northeast 323 372 16,000 1,620 Climbing Salt Lake Center
05:48PM 41.1069 -111.9603 42° Northeast 344 396 17,600 1,560 Climbing Salt Lake Center
05:49PM 41.1817 -111.8694 42° Northeast 357 411 19,300 1,500 Climbing Salt Lake Center
05:50PM 41.2672 -111.7961 33° Northeast 367 422 20,700 1,200 Climbing Salt Lake Center
05:52PM 41.4592 -111.6822 24° Northeast 383 441 23,100 1,080 Climbing Salt Lake Center
05:53PM 41.5594 -111.6264 23° Northeast 394 453 24,100 960 Climbing Salt Lake Center
05:54PM 41.6544 -111.5478 32° Northeast 401 461 25,100 1,020 Climbing Salt Lake Center
05:55PM 41.7725 -111.4511 31° Northeast 415 478 26,200 960 Climbing Salt Lake Center
05:56PM 41.8728 -111.3672 32° Northeast 423 487 27,100 900 Climbing Salt Lake Center
05:57PM 41.9717 -111.2861 31° Northeast 417 480 28,100 780 Climbing Salt Lake Center
05:58PM 42.0714 -111.2042 31° Northeast 421 484 28,700 420 Climbing Salt Lake Center
05:59PM 42.1725 -111.1192 32° Northeast 427 491 29,000 120 Climbing Salt Lake Center
06:00PM 42.2569 -111.0067 45° Northeast 432 497 29,000  Level Salt Lake Center
06:01PM 42.3469 -110.8764 47° Northeast 437 503 29,000  Level Salt Lake Center
06:02PM 42.4331 -110.7667 43° Northeast 442 509 29,000  Level Salt Lake Center
06:03PM 42.5350 -110.6431 42° Northeast 440 506 29,000  Level Salt Lake Center
06:04PM 42.6242 -110.5389 41° Northeast 441 507 29,000  Level Salt Lake Center
06:05PM 42.7225 -110.4403 36° Northeast 440 506 29,000  Level Salt Lake Center
06:06PM 42.8342 -110.3361 34° Northeast 437 503 29,000  Level Salt Lake Center
06:07PM 42.9325 -110.2539 31° Northeast 435 501 29,000  Level Salt Lake Center
06:08PM 43.0475 -110.1628 30° Northeast 431 496 29,000  Level Salt Lake Center
06:09PM 43.1456 -110.0889 29° Northeast 424 488 29,000  Level Salt Lake Center
06:10PM 43.2322 -109.9878 40° Northeast 426 490 29,000  Level Salt Lake Center
06:11PM 43.3067 -109.8403 55° Northeast 436 502 29,000  Level Salt Lake Center
06:12PM 43.3733 -109.7042 56° Northeast 431 496 29,000  Level Salt Lake Center
06:13PM 43.4558 -109.5811 47° Northeast 439 505 29,000  Level Salt Lake Center
06:14PM 43.5417 -109.4603 46° Northeast 442 509 29,000  Level Salt Lake Center
06:15PM 43.6411 -109.3636 35° Northeast 442 509 29,000  Level Salt Lake Center
06:16PM 43.7767 -109.2900 21° North 437 503 29,000  Level Salt Lake Center
06:17PM 43.8908 -109.2486 15° North 427 491 29,000 -1,080 Level Salt Lake Center
06:19PM 44.0061 -109.2233 North 420 483 26,800 -2,760 Descending Salt Lake Center
06:20PM 44.1192 -109.2356 356° North 411 473 23,500 -3,540 Descending Salt Lake Center
06:21PM 44.2239 -109.2575 351° North 389 448 19,700 -3,720 Descending Salt Lake Center
06:22PM 44.3225 -109.2328 10° North 373 429 15,900 -2,400 Descending Salt Lake Center
06:23PM 44.3956 -109.1533 38° Northeast 348 400 14,900 -1,320 Descending Salt Lake Center
06:24PM 44.4444 -109.0633 53° Northeast 307 353 13,300 -1,800 Descending Salt Lake Center
06:25PM 44.4806 -108.9872 56° Northeast 262 302 11,300 -1,980 Descending Salt Lake Center